sensor_id;sensor_type;location;lat;lon;timestamp;temperature;humidity
29501;DHT22;16450;50.288;10.966;2023-05-17T00:01:19;7.00;82.20
29501;DHT22;16450;50.288;10.966;2023-05-17T00:04:21;7.00;82.30
29501;DHT22;16450;50.288;10.966;2023-05-17T00:07:23;7.00;82.60
29501;DHT22;16450;50.288;10.966;2023-05-17T00:10:25;6.90;82.50
29501;DHT22;16450;50.288;10.966;2023-05-17T00:13:27;6.90;82.60
29501;DHT22;16450;50.288;10.966;2023-05-17T00:16:29;6.80;82.70
29501;DHT22;16450;50.288;10.966;2023-05-17T00:19:31;6.80;83.00
29501;DHT22;16450;50.288;10.966;2023-05-17T00:22:33;6.80;83.00
29501;DHT22;16450;50.288;10.966;2023-05-17T00:25:35;6.70;83.30
29501;DHT22;16450;50.288;10.966;2023-05-17T00:28:37;6.70;83.50
29501;DHT22;16450;50.288;10.966;2023-05-17T00:31:39;6.60;83.50
29501;DHT22;16450;50.288;10.966;2023-05-17T00:34:41;6.60;83.50
29501;DHT22;16450;50.288;10.966;2023-05-17T00:37:43;6.60;83.70
29501;DHT22;16450;50.288;10.966;2023-05-17T00:40:49;6.60;83.70
29501;DHT22;16450;50.288;10.966;2023-05-17T00:43:51;6.50;83.90
29501;DHT22;16450;50.288;10.966;2023-05-17T00:46:52;6.50;83.90
29501;DHT22;16450;50.288;10.966;2023-05-17T00:49:55;6.50;84.10
29501;DHT22;16450;50.288;10.966;2023-05-17T00:52:57;6.40;84.20
29501;DHT22;16450;50.288;10.966;2023-05-17T00:55:59;6.40;84.30
29501;DHT22;16450;50.288;10.966;2023-05-17T00:59:04;6.30;84.40
29501;DHT22;16450;50.288;10.966;2023-05-17T01:02:07;6.30;84.60
29501;DHT22;16450;50.288;10.966;2023-05-17T01:05:09;6.30;84.70
29501;DHT22;16450;50.288;10.966;2023-05-17T01:08:10;6.20;84.70
29501;DHT22;16450;50.288;10.966;2023-05-17T01:14:57;6.10;85.50
29501;DHT22;16450;50.288;10.966;2023-05-17T01:18:15;6.10;85.30
29501;DHT22;16450;50.288;10.966;2023-05-17T01:21:57;6.10;85.70
29501;DHT22;16450;50.288;10.966;2023-05-17T01:28:52;6.00;85.80
29501;DHT22;16450;50.288;10.966;2023-05-17T01:31:56;6.00;85.70
29501;DHT22;16450;50.288;10.966;2023-05-17T01:34:58;5.90;85.70
29501;DHT22;16450;50.288;10.966;2023-05-17T01:38:00;5.90;85.90
29501;DHT22;16450;50.288;10.966;2023-05-17T01:41:39;5.90;86.00
29501;DHT22;16450;50.288;10.966;2023-05-17T01:44:46;5.80;86.40
29501;DHT22;16450;50.288;10.966;2023-05-17T01:50:58;5.80;86.30
29501;DHT22;16450;50.288;10.966;2023-05-17T01:54:04;5.70;86.30
29501;DHT22;16450;50.288;10.966;2023-05-17T01:57:14;5.70;86.60
29501;DHT22;16450;50.288;10.966;2023-05-17T02:00:18;5.60;86.40
29501;DHT22;16450;50.288;10.966;2023-05-17T02:03:20;5.50;86.50
29501;DHT22;16450;50.288;10.966;2023-05-17T02:06:22;5.50;86.60
29501;DHT22;16450;50.288;10.966;2023-05-17T02:09:24;5.50;87.60
29501;DHT22;16450;50.288;10.966;2023-05-17T02:12:26;5.40;87.00
29501;DHT22;16450;50.288;10.966;2023-05-17T02:15:28;5.40;87.30
29501;DHT22;16450;50.288;10.966;2023-05-17T02:18:30;5.40;87.50
29501;DHT22;16450;50.288;10.966;2023-05-17T02:21:34;5.30;87.60
29501;DHT22;16450;50.288;10.966;2023-05-17T02:24:36;5.30;87.70
29501;DHT22;16450;50.288;10.966;2023-05-17T02:27:38;5.30;87.60
29501;DHT22;16450;50.288;10.966;2023-05-17T02:30:40;5.20;87.70
29501;DHT22;16450;50.288;10.966;2023-05-17T02:33:42;5.20;87.70
29501;DHT22;16450;50.288;10.966;2023-05-17T02:36:44;5.10;87.70
29501;DHT22;16450;50.288;10.966;2023-05-17T02:39:46;5.10;87.80
29501;DHT22;16450;50.288;10.966;2023-05-17T02:42:48;5.00;87.70
29501;DHT22;16450;50.288;10.966;2023-05-17T02:45:50;5.00;87.70
29501;DHT22;16450;50.288;10.966;2023-05-17T02:48:52;4.90;87.70
29501;DHT22;16450;50.288;10.966;2023-05-17T02:51:53;4.80;88.40
29501;DHT22;16450;50.288;10.966;2023-05-17T02:54:55;4.80;87.80
29501;DHT22;16450;50.288;10.966;2023-05-17T02:57:57;4.70;87.80
29501;DHT22;16450;50.288;10.966;2023-05-17T03:00:59;4.70;88.00
29501;DHT22;16450;50.288;10.966;2023-05-17T03:04:01;4.60;88.20
29501;DHT22;16450;50.288;10.966;2023-05-17T03:07:03;4.60;88.30
29501;DHT22;16450;50.288;10.966;2023-05-17T03:10:07;4.50;88.40
29501;DHT22;16450;50.288;10.966;2023-05-17T03:13:10;4.50;88.40
29501;DHT22;16450;50.288;10.966;2023-05-17T03:16:12;4.40;88.40
29501;DHT22;16450;50.288;10.966;2023-05-17T03:19:14;4.40;88.60
29501;DHT22;16450;50.288;10.966;2023-05-17T03:22:16;4.40;88.70
29501;DHT22;16450;50.288;10.966;2023-05-17T03:25:18;4.30;88.80
29501;DHT22;16450;50.288;10.966;2023-05-17T03:28:20;4.30;89.20
29501;DHT22;16450;50.288;10.966;2023-05-17T03:31:21;4.30;89.30
29501;DHT22;16450;50.288;10.966;2023-05-17T03:34:23;4.20;89.20
29501;DHT22;16450;50.288;10.966;2023-05-17T03:37:25;4.20;89.40
29501;DHT22;16450;50.288;10.966;2023-05-17T03:40:27;4.20;89.60
29501;DHT22;16450;50.288;10.966;2023-05-17T03:43:29;4.10;89.60
29501;DHT22;16450;50.288;10.966;2023-05-17T03:46:31;4.10;89.90
29501;DHT22;16450;50.288;10.966;2023-05-17T03:49:33;4.10;90.00
29501;DHT22;16450;50.288;10.966;2023-05-17T03:52:34;4.00;90.00
29501;DHT22;16450;50.288;10.966;2023-05-17T03:55:36;4.00;90.10
29501;DHT22;16450;50.288;10.966;2023-05-17T03:58:38;4.00;90.20
29501;DHT22;16450;50.288;10.966;2023-05-17T04:01:41;4.00;90.40
29501;DHT22;16450;50.288;10.966;2023-05-17T04:04:49;4.10;90.50
29501;DHT22;16450;50.288;10.966;2023-05-17T04:07:52;4.10;90.70
29501;DHT22;16450;50.288;10.966;2023-05-17T04:10:54;4.10;90.60
29501;DHT22;16450;50.288;10.966;2023-05-17T04:13:56;4.10;90.70
29501;DHT22;16450;50.288;10.966;2023-05-17T04:16:58;4.10;90.80
29501;DHT22;16450;50.288;10.966;2023-05-17T04:20:00;4.10;90.90
29501;DHT22;16450;50.288;10.966;2023-05-17T04:23:02;4.20;91.20
29501;DHT22;16450;50.288;10.966;2023-05-17T04:26:04;4.30;91.30
29501;DHT22;16450;50.288;10.966;2023-05-17T04:29:06;4.30;91.40
29501;DHT22;16450;50.288;10.966;2023-05-17T04:32:08;4.30;91.50
29501;DHT22;16450;50.288;10.966;2023-05-17T04:35:10;4.40;91.60
29501;DHT22;16450;50.288;10.966;2023-05-17T04:38:12;4.50;91.70
29501;DHT22;16450;50.288;10.966;2023-05-17T04:41:14;4.50;91.80
29501;DHT22;16450;50.288;10.966;2023-05-17T04:44:17;4.60;92.00
29501;DHT22;16450;50.288;10.966;2023-05-17T04:47:19;4.70;92.10
29501;DHT22;16450;50.288;10.966;2023-05-17T04:50:21;4.80;92.30
29501;DHT22;16450;50.288;10.966;2023-05-17T04:53:22;4.90;92.40
29501;DHT22;16450;50.288;10.966;2023-05-17T04:56:24;5.00;92.50
29501;DHT22;16450;50.288;10.966;2023-05-17T04:59:26;5.10;92.60
29501;DHT22;16450;50.288;10.966;2023-05-17T05:02:28;5.10;92.60
29501;DHT22;16450;50.288;10.966;2023-05-17T05:05:30;5.20;92.60
29501;DHT22;16450;50.288;10.966;2023-05-17T05:08:33;5.30;92.80
29501;DHT22;16450;50.288;10.966;2023-05-17T05:11:35;5.40;93.00
29501;DHT22;16450;50.288;10.966;2023-05-17T05:14:37;5.60;93.30
29501;DHT22;16450;50.288;10.966;2023-05-17T05:17:39;5.60;92.90
29501;DHT22;16450;50.288;10.966;2023-05-17T05:20:42;5.70;93.00
29501;DHT22;16450;50.288;10.966;2023-05-17T05:23:44;5.80;93.30
29501;DHT22;16450;50.288;10.966;2023-05-17T05:26:46;6.00;93.90
29501;DHT22;16450;50.288;10.966;2023-05-17T05:29:48;6.30;94.40
29501;DHT22;16450;50.288;10.966;2023-05-17T05:32:51;6.70;95.00
29501;DHT22;16450;50.288;10.966;2023-05-17T05:35:53;7.10;95.20
29501;DHT22;16450;50.288;10.966;2023-05-17T05:38:54;7.60;95.60
29501;DHT22;16450;50.288;10.966;2023-05-17T05:41:56;8.10;95.10
29501;DHT22;16450;50.288;10.966;2023-05-17T05:44:58;8.50;95.10
29501;DHT22;16450;50.288;10.966;2023-05-17T05:48:00;8.90;95.10
29501;DHT22;16450;50.288;10.966;2023-05-17T05:51:02;9.20;95.10
29501;DHT22;16450;50.288;10.966;2023-05-17T05:54:04;9.70;95.10
29501;DHT22;16450;50.288;10.966;2023-05-17T05:57:06;10.20;95.20
29501;DHT22;16450;50.288;10.966;2023-05-17T06:00:08;10.60;95.10
29501;DHT22;16450;50.288;10.966;2023-05-17T06:03:10;11.00;94.70
29501;DHT22;16450;50.288;10.966;2023-05-17T06:06:12;11.30;94.30
29501;DHT22;16450;50.288;10.966;2023-05-17T06:09:15;11.60;93.70
29501;DHT22;16450;50.288;10.966;2023-05-17T06:12:17;11.70;93.30
29501;DHT22;16450;50.288;10.966;2023-05-17T06:15:19;11.80;93.40
29501;DHT22;16450;50.288;10.966;2023-05-17T06:18:21;12.00;93.80
29501;DHT22;16450;50.288;10.966;2023-05-17T06:21:23;12.20;93.90
29501;DHT22;16450;50.288;10.966;2023-05-17T06:24:25;12.50;94.30
29501;DHT22;16450;50.288;10.966;2023-05-17T06:27:27;12.90;94.20
29501;DHT22;16450;50.288;10.966;2023-05-17T06:30:29;13.30;93.90
29501;DHT22;16450;50.288;10.966;2023-05-17T06:33:32;13.50;93.30
29501;DHT22;16450;50.288;10.966;2023-05-17T06:36:34;13.70;92.90
29501;DHT22;16450;50.288;10.966;2023-05-17T06:39:39;13.80;92.20
29501;DHT22;16450;50.288;10.966;2023-05-17T06:42:41;13.90;91.60
29501;DHT22;16450;50.288;10.966;2023-05-17T06:45:43;13.90;91.30
29501;DHT22;16450;50.288;10.966;2023-05-17T06:48:45;13.90;90.80
29501;DHT22;16450;50.288;10.966;2023-05-17T06:51:51;13.70;90.60
29501;DHT22;16450;50.288;10.966;2023-05-17T06:54:55;13.50;90.00
29501;DHT22;16450;50.288;10.966;2023-05-17T06:57:57;13.40;89.90
29501;DHT22;16450;50.288;10.966;2023-05-17T07:01:00;13.20;89.50
29501;DHT22;16450;50.288;10.966;2023-05-17T07:04:02;12.90;89.20
29501;DHT22;16450;50.288;10.966;2023-05-17T07:07:04;12.70;89.10
29501;DHT22;16450;50.288;10.966;2023-05-17T07:10:06;12.50;89.00
29501;DHT22;16450;50.288;10.966;2023-05-17T07:13:08;12.30;89.00
29501;DHT22;16450;50.288;10.966;2023-05-17T07:16:10;12.20;89.20
29501;DHT22;16450;50.288;10.966;2023-05-17T07:19:14;12.00;89.50
29501;DHT22;16450;50.288;10.966;2023-05-17T07:22:17;11.80;89.50
29501;DHT22;16450;50.288;10.966;2023-05-17T07:25:19;11.70;89.60
29501;DHT22;16450;50.288;10.966;2023-05-17T07:28:22;11.60;89.90
29501;DHT22;16450;50.288;10.966;2023-05-17T07:31:23;11.40;90.20
29501;DHT22;16450;50.288;10.966;2023-05-17T07:34:25;11.40;90.20
29501;DHT22;16450;50.288;10.966;2023-05-17T07:37:27;11.40;90.30
29501;DHT22;16450;50.288;10.966;2023-05-17T07:40:30;11.30;90.00
29501;DHT22;16450;50.288;10.966;2023-05-17T07:43:31;11.30;90.00
29501;DHT22;16450;50.288;10.966;2023-05-17T07:46:33;11.20;90.00
29501;DHT22;16450;50.288;10.966;2023-05-17T07:49:35;11.30;89.70
29501;DHT22;16450;50.288;10.966;2023-05-17T07:52:37;11.20;89.40
29501;DHT22;16450;50.288;10.966;2023-05-17T07:55:39;11.20;89.40
29501;DHT22;16450;50.288;10.966;2023-05-17T07:58:44;11.20;88.90
29501;DHT22;16450;50.288;10.966;2023-05-17T08:01:46;11.20;88.90
29501;DHT22;16450;50.288;10.966;2023-05-17T08:04:48;11.20;88.70
29501;DHT22;16450;50.288;10.966;2023-05-17T08:07:50;11.20;88.40
29501;DHT22;16450;50.288;10.966;2023-05-17T08:10:52;11.20;88.20
29501;DHT22;16450;50.288;10.966;2023-05-17T08:13:54;11.20;87.90
29501;DHT22;16450;50.288;10.966;2023-05-17T08:16:56;11.20;88.20
29501;DHT22;16450;50.288;10.966;2023-05-17T08:19:58;11.20;88.10
29501;DHT22;16450;50.288;10.966;2023-05-17T08:23:00;11.30;87.80
29501;DHT22;16450;50.288;10.966;2023-05-17T08:26:02;11.20;87.80
29501;DHT22;16450;50.288;10.966;2023-05-17T08:29:04;11.30;87.90
29501;DHT22;16450;50.288;10.966;2023-05-17T08:32:06;11.30;87.80
29501;DHT22;16450;50.288;10.966;2023-05-17T08:35:08;11.40;87.80
29501;DHT22;16450;50.288;10.966;2023-05-17T08:38:11;11.40;87.60
29501;DHT22;16450;50.288;10.966;2023-05-17T08:41:13;11.50;87.40
29501;DHT22;16450;50.288;10.966;2023-05-17T08:44:15;11.60;88.10
29501;DHT22;16450;50.288;10.966;2023-05-17T08:47:18;11.60;88.10
29501;DHT22;16450;50.288;10.966;2023-05-17T08:50:27;11.70;87.50
29501;DHT22;16450;50.288;10.966;2023-05-17T08:53:31;11.80;87.70
29501;DHT22;16450;50.288;10.966;2023-05-17T08:56:34;11.80;87.50
29501;DHT22;16450;50.288;10.966;2023-05-17T08:59:37;11.90;86.50
29501;DHT22;16450;50.288;10.966;2023-05-17T09:02:40;11.90;86.40
29501;DHT22;16450;50.288;10.966;2023-05-17T09:05:49;12.00;86.00
29501;DHT22;16450;50.288;10.966;2023-05-17T09:08:53;12.10;85.70
29501;DHT22;16450;50.288;10.966;2023-05-17T09:11:56;12.20;86.90
29501;DHT22;16450;50.288;10.966;2023-05-17T09:15:14;12.30;87.40
29501;DHT22;16450;50.288;10.966;2023-05-17T09:18:17;12.40;85.40
29501;DHT22;16450;50.288;10.966;2023-05-17T09:21:21;12.40;87.00
29501;DHT22;16450;50.288;10.966;2023-05-17T09:24:28;12.50;86.40
29501;DHT22;16450;50.288;10.966;2023-05-17T09:27:30;12.50;86.00
29501;DHT22;16450;50.288;10.966;2023-05-17T09:30:35;12.50;86.20
29501;DHT22;16450;50.288;10.966;2023-05-17T09:33:48;12.50;85.80
29501;DHT22;16450;50.288;10.966;2023-05-17T09:36:50;12.60;84.00
29501;DHT22;16450;50.288;10.966;2023-05-17T09:39:53;12.60;85.60
29501;DHT22;16450;50.288;10.966;2023-05-17T09:42:57;12.60;85.40
29501;DHT22;16450;50.288;10.966;2023-05-17T09:45:59;12.60;85.30
29501;DHT22;16450;50.288;10.966;2023-05-17T09:49:01;12.60;85.60
29501;DHT22;16450;50.288;10.966;2023-05-17T09:52:07;12.70;85.10
29501;DHT22;16450;50.288;10.966;2023-05-17T09:55:10;12.70;84.70
29501;DHT22;16450;50.288;10.966;2023-05-17T09:58:15;12.70;84.50
29501;DHT22;16450;50.288;10.966;2023-05-17T10:01:18;12.70;84.10
29501;DHT22;16450;50.288;10.966;2023-05-17T10:04:23;12.80;84.30
29501;DHT22;16450;50.288;10.966;2023-05-17T10:07:28;12.90;84.70
29501;DHT22;16450;50.288;10.966;2023-05-17T10:10:32;13.10;85.50
29501;DHT22;16450;50.288;10.966;2023-05-17T10:13:58;13.20;84.80
29501;DHT22;16450;50.288;10.966;2023-05-17T10:17:03;13.50;81.90
29501;DHT22;16450;50.288;10.966;2023-05-17T10:20:06;13.50;84.30
29501;DHT22;16450;50.288;10.966;2023-05-17T10:23:14;13.60;83.90
29501;DHT22;16450;50.288;10.966;2023-05-17T10:26:17;13.70;82.70
29501;DHT22;16450;50.288;10.966;2023-05-17T10:29:19;13.70;83.70
29501;DHT22;16450;50.288;10.966;2023-05-17T10:32:22;13.80;83.10
29501;DHT22;16450;50.288;10.966;2023-05-17T10:35:29;13.90;82.50
29501;DHT22;16450;50.288;10.966;2023-05-17T10:38:31;13.90;81.60
29501;DHT22;16450;50.288;10.966;2023-05-17T10:41:45;14.00;81.80
29501;DHT22;16450;50.288;10.966;2023-05-17T10:44:49;14.10;82.40
29501;DHT22;16450;50.288;10.966;2023-05-17T10:47:54;14.30;84.30
29501;DHT22;16450;50.288;10.966;2023-05-17T10:51:05;14.60;84.20
29501;DHT22;16450;50.288;10.966;2023-05-17T10:54:10;14.80;81.00
29501;DHT22;16450;50.288;10.966;2023-05-17T10:57:21;15.00;82.50
29501;DHT22;16450;50.288;10.966;2023-05-17T11:00:47;15.20;79.50
29501;DHT22;16450;50.288;10.966;2023-05-17T11:03:50;15.40;82.30
29501;DHT22;16450;50.288;10.966;2023-05-17T11:06:53;15.60;82.30
29501;DHT22;16450;50.288;10.966;2023-05-17T11:13:21;15.80;78.60
29501;DHT22;16450;50.288;10.966;2023-05-17T11:16:36;15.80;77.10
29501;DHT22;16450;50.288;10.966;2023-05-17T11:19:43;16.00;76.00
29501;DHT22;16450;50.288;10.966;2023-05-17T11:22:55;16.00;78.60
29501;DHT22;16450;50.288;10.966;2023-05-17T11:26:13;16.10;76.80
29501;DHT22;16450;50.288;10.966;2023-05-17T11:29:17;16.10;74.00
29501;DHT22;16450;50.288;10.966;2023-05-17T11:32:25;16.10;76.80
29501;DHT22;16450;50.288;10.966;2023-05-17T11:35:37;16.10;74.40
29501;DHT22;16450;50.288;10.966;2023-05-17T11:38:39;16.10;73.30
29501;DHT22;16450;50.288;10.966;2023-05-17T11:41:55;16.10;76.60
29501;DHT22;16450;50.288;10.966;2023-05-17T11:44:59;16.20;74.70
29501;DHT22;16450;50.288;10.966;2023-05-17T11:48:01;16.20;76.10
29501;DHT22;16450;50.288;10.966;2023-05-17T11:51:05;16.20;75.50
29501;DHT22;16450;50.288;10.966;2023-05-17T11:54:08;16.20;75.30
29501;DHT22;16450;50.288;10.966;2023-05-17T11:57:12;16.20;75.10
29501;DHT22;16450;50.288;10.966;2023-05-17T12:00:23;16.30;74.80
29501;DHT22;16450;50.288;10.966;2023-05-17T12:03:30;16.40;72.40
29501;DHT22;16450;50.288;10.966;2023-05-17T12:06:32;16.30;73.90
29501;DHT22;16450;50.288;10.966;2023-05-17T12:09:37;16.40;73.90
29501;DHT22;16450;50.288;10.966;2023-05-17T12:12:43;16.40;72.30
29501;DHT22;16450;50.288;10.966;2023-05-17T12:19:20;16.30;70.70
29501;DHT22;16450;50.288;10.966;2023-05-17T12:22:22;16.30;73.30
29501;DHT22;16450;50.288;10.966;2023-05-17T12:25:24;16.50;74.00
29501;DHT22;16450;50.288;10.966;2023-05-17T12:28:28;16.60;74.10
29501;DHT22;16450;50.288;10.966;2023-05-17T12:31:32;16.80;74.10
29501;DHT22;16450;50.288;10.966;2023-05-17T12:34:34;16.90;72.60
29501;DHT22;16450;50.288;10.966;2023-05-17T12:37:37;16.90;72.50
29501;DHT22;16450;50.288;10.966;2023-05-17T12:40:39;17.00;72.70
29501;DHT22;16450;50.288;10.966;2023-05-17T12:43:44;17.10;73.10
29501;DHT22;16450;50.288;10.966;2023-05-17T12:46:49;17.30;73.30
29501;DHT22;16450;50.288;10.966;2023-05-17T12:49:54;17.40;71.50
29501;DHT22;16450;50.288;10.966;2023-05-17T12:52:56;17.50;71.60
29501;DHT22;16450;50.288;10.966;2023-05-17T12:55:58;17.60;69.50
29501;DHT22;16450;50.288;10.966;2023-05-17T13:02:11;17.40;65.90
29501;DHT22;16450;50.288;10.966;2023-05-17T13:05:17;17.20;67.60
29501;DHT22;16450;50.288;10.966;2023-05-17T13:08:22;17.10;67.40
29501;DHT22;16450;50.288;10.966;2023-05-17T13:11:25;17.10;69.20
29501;DHT22;16450;50.288;10.966;2023-05-17T13:14:46;17.10;67.60
29501;DHT22;16450;50.288;10.966;2023-05-17T13:17:48;17.10;65.60
29501;DHT22;16450;50.288;10.966;2023-05-17T13:20:50;17.10;67.90
29501;DHT22;16450;50.288;10.966;2023-05-17T13:23:53;17.00;66.20
29501;DHT22;16450;50.288;10.966;2023-05-17T13:26:54;17.00;66.40
29501;DHT22;16450;50.288;10.966;2023-05-17T13:29:56;16.90;66.00
29501;DHT22;16450;50.288;10.966;2023-05-17T13:32:58;17.00;66.00
29501;DHT22;16450;50.288;10.966;2023-05-17T13:36:00;17.10;66.20
29501;DHT22;16450;50.288;10.966;2023-05-17T13:39:02;17.20;66.50
29501;DHT22;16450;50.288;10.966;2023-05-17T13:42:05;17.30;67.50
29501;DHT22;16450;50.288;10.966;2023-05-17T13:45:07;17.40;66.20
29501;DHT22;16450;50.288;10.966;2023-05-17T13:48:09;17.30;65.20
29501;DHT22;16450;50.288;10.966;2023-05-17T13:51:12;17.30;64.00
29501;DHT22;16450;50.288;10.966;2023-05-17T13:54:13;17.30;64.20
29501;DHT22;16450;50.288;10.966;2023-05-17T13:57:15;17.40;64.90
29501;DHT22;16450;50.288;10.966;2023-05-17T14:00:18;17.40;64.50
29501;DHT22;16450;50.288;10.966;2023-05-17T14:03:20;17.50;64.60
29501;DHT22;16450;50.288;10.966;2023-05-17T14:06:22;17.60;64.40
29501;DHT22;16450;50.288;10.966;2023-05-17T14:09:24;17.70;64.00
29501;DHT22;16450;50.288;10.966;2023-05-17T14:12:26;17.80;63.10
29501;DHT22;16450;50.288;10.966;2023-05-17T14:15:29;17.80;62.70
29501;DHT22;16450;50.288;10.966;2023-05-17T14:18:30;18.00;62.40
29501;DHT22;16450;50.288;10.966;2023-05-17T14:21:33;18.00;61.70
29501;DHT22;16450;50.288;10.966;2023-05-17T14:24:35;18.00;61.20
29501;DHT22;16450;50.288;10.966;2023-05-17T14:27:37;18.10;60.50
29501;DHT22;16450;50.288;10.966;2023-05-17T14:30:39;18.20;61.40
29501;DHT22;16450;50.288;10.966;2023-05-17T14:33:40;18.30;60.80
29501;DHT22;16450;50.288;10.966;2023-05-17T14:36:42;18.40;61.50
29501;DHT22;16450;50.288;10.966;2023-05-17T14:39:44;18.50;61.20
29501;DHT22;16450;50.288;10.966;2023-05-17T14:43:05;18.50;60.10
29501;DHT22;16450;50.288;10.966;2023-05-17T14:46:07;18.50;60.00
29501;DHT22;16450;50.288;10.966;2023-05-17T14:49:09;18.50;58.90
29501;DHT22;16450;50.288;10.966;2023-05-17T14:52:11;18.40;58.50
29501;DHT22;16450;50.288;10.966;2023-05-17T14:55:13;18.30;58.30
29501;DHT22;16450;50.288;10.966;2023-05-17T14:58:17;18.20;58.00
29501;DHT22;16450;50.288;10.966;2023-05-17T15:01:18;18.20;58.10
29501;DHT22;16450;50.288;10.966;2023-05-17T15:04:22;18.20;58.00
29501;DHT22;16450;50.288;10.966;2023-05-17T15:07:24;18.00;57.20
29501;DHT22;16450;50.288;10.966;2023-05-17T15:10:26;17.90;57.30
29501;DHT22;16450;50.288;10.966;2023-05-17T15:13:28;17.90;57.20
29501;DHT22;16450;50.288;10.966;2023-05-17T15:16:30;17.90;56.90
29501;DHT22;16450;50.288;10.966;2023-05-17T15:19:32;17.80;56.90
29501;DHT22;16450;50.288;10.966;2023-05-17T15:22:34;17.80;57.60
29501;DHT22;16450;50.288;10.966;2023-05-17T15:25:36;17.80;57.20
29501;DHT22;16450;50.288;10.966;2023-05-17T15:28:38;17.80;56.90
29501;DHT22;16450;50.288;10.966;2023-05-17T15:31:40;17.80;57.10
29501;DHT22;16450;50.288;10.966;2023-05-17T15:34:42;17.80;56.90
29501;DHT22;16450;50.288;10.966;2023-05-17T15:37:45;17.70;56.80
29501;DHT22;16450;50.288;10.966;2023-05-17T15:41:02;17.70;56.80
29501;DHT22;16450;50.288;10.966;2023-05-17T15:44:05;17.70;55.20
29501;DHT22;16450;50.288;10.966;2023-05-17T15:47:08;17.70;56.40
29501;DHT22;16450;50.288;10.966;2023-05-17T15:50:10;17.70;56.50
29501;DHT22;16450;50.288;10.966;2023-05-17T15:53:12;17.60;56.20
29501;DHT22;16450;50.288;10.966;2023-05-17T15:56:15;17.60;56.20
29501;DHT22;16450;50.288;10.966;2023-05-17T15:59:20;17.60;56.40
29501;DHT22;16450;50.288;10.966;2023-05-17T16:02:22;17.50;55.60
29501;DHT22;16450;50.288;10.966;2023-05-17T16:05:25;17.40;55.30
29501;DHT22;16450;50.288;10.966;2023-05-17T16:08:27;17.30;54.80
29501;DHT22;16450;50.288;10.966;2023-05-17T16:11:29;17.10;54.80
29501;DHT22;16450;50.288;10.966;2023-05-17T16:14:31;17.00;55.40
29501;DHT22;16450;50.288;10.966;2023-05-17T16:17:33;16.90;55.10
29501;DHT22;16450;50.288;10.966;2023-05-17T16:20:35;16.90;55.30
29501;DHT22;16450;50.288;10.966;2023-05-17T16:23:37;16.80;55.70
29501;DHT22;16450;50.288;10.966;2023-05-17T16:26:39;16.70;55.40
29501;DHT22;16450;50.288;10.966;2023-05-17T16:29:41;16.80;55.70
29501;DHT22;16450;50.288;10.966;2023-05-17T16:32:44;16.70;55.40
29501;DHT22;16450;50.288;10.966;2023-05-17T16:35:47;16.70;55.10
29501;DHT22;16450;50.288;10.966;2023-05-17T16:38:49;16.70;55.20
29501;DHT22;16450;50.288;10.966;2023-05-17T16:41:52;16.60;55.30
29501;DHT22;16450;50.288;10.966;2023-05-17T16:44:55;16.50;55.40
29501;DHT22;16450;50.288;10.966;2023-05-17T16:47:57;16.50;55.30
29501;DHT22;16450;50.288;10.966;2023-05-17T16:50:59;16.50;55.30
29501;DHT22;16450;50.288;10.966;2023-05-17T16:54:01;16.60;55.40
29501;DHT22;16450;50.288;10.966;2023-05-17T16:57:04;16.50;55.60
29501;DHT22;16450;50.288;10.966;2023-05-17T17:00:09;16.50;55.20
29501;DHT22;16450;50.288;10.966;2023-05-17T17:03:12;16.50;55.20
29501;DHT22;16450;50.288;10.966;2023-05-17T17:06:14;16.50;55.20
29501;DHT22;16450;50.288;10.966;2023-05-17T17:09:16;16.40;54.80
29501;DHT22;16450;50.288;10.966;2023-05-17T17:12:19;16.30;54.90
29501;DHT22;16450;50.288;10.966;2023-05-17T17:15:26;16.20;54.70
29501;DHT22;16450;50.288;10.966;2023-05-17T17:18:28;16.10;54.90
29501;DHT22;16450;50.288;10.966;2023-05-17T17:21:31;16.10;54.70
29501;DHT22;16450;50.288;10.966;2023-05-17T17:24:40;16.00;54.80
29501;DHT22;16450;50.288;10.966;2023-05-17T17:27:41;15.90;54.80
29501;DHT22;16450;50.288;10.966;2023-05-17T17:30:43;15.90;54.80
29501;DHT22;16450;50.288;10.966;2023-05-17T17:33:47;15.80;54.60
29501;DHT22;16450;50.288;10.966;2023-05-17T17:36:49;15.70;54.70
29501;DHT22;16450;50.288;10.966;2023-05-17T17:39:51;15.60;54.50
29501;DHT22;16450;50.288;10.966;2023-05-17T17:42:53;15.60;54.50
29501;DHT22;16450;50.288;10.966;2023-05-17T17:45:55;15.50;54.40
29501;DHT22;16450;50.288;10.966;2023-05-17T17:48:57;15.40;54.80
29501;DHT22;16450;50.288;10.966;2023-05-17T17:51:58;15.40;55.40
29501;DHT22;16450;50.288;10.966;2023-05-17T17:55:00;15.30;54.70
29501;DHT22;16450;50.288;10.966;2023-05-17T17:58:02;15.30;54.90
29501;DHT22;16450;50.288;10.966;2023-05-17T18:01:04;15.20;55.10
29501;DHT22;16450;50.288;10.966;2023-05-17T18:04:06;15.10;55.00
29501;DHT22;16450;50.288;10.966;2023-05-17T18:07:08;15.00;54.80
29501;DHT22;16450;50.288;10.966;2023-05-17T18:10:10;15.00;54.90
29501;DHT22;16450;50.288;10.966;2023-05-17T18:13:12;14.90;54.90
29501;DHT22;16450;50.288;10.966;2023-05-17T18:16:14;14.70;55.10
29501;DHT22;16450;50.288;10.966;2023-05-17T18:19:16;14.70;55.20
29501;DHT22;16450;50.288;10.966;2023-05-17T18:22:18;14.60;55.40
29501;DHT22;16450;50.288;10.966;2023-05-17T18:25:20;14.60;55.60
29501;DHT22;16450;50.288;10.966;2023-05-17T18:28:22;14.50;55.70
29501;DHT22;16450;50.288;10.966;2023-05-17T18:31:38;14.40;55.70
29501;DHT22;16450;50.288;10.966;2023-05-17T18:34:40;14.30;55.70
29501;DHT22;16450;50.288;10.966;2023-05-17T18:37:42;14.30;55.70
29501;DHT22;16450;50.288;10.966;2023-05-17T18:40:44;14.20;55.70
29501;DHT22;16450;50.288;10.966;2023-05-17T18:43:46;14.20;55.70
29501;DHT22;16450;50.288;10.966;2023-05-17T18:46:48;14.10;56.00
29501;DHT22;16450;50.288;10.966;2023-05-17T18:49:50;14.10;56.40
29501;DHT22;16450;50.288;10.966;2023-05-17T18:52:52;14.00;56.50
29501;DHT22;16450;50.288;10.966;2023-05-17T18:55:57;14.00;56.50
29501;DHT22;16450;50.288;10.966;2023-05-17T18:59:03;13.90;57.00
29501;DHT22;16450;50.288;10.966;2023-05-17T19:02:06;13.90;57.30
29501;DHT22;16450;50.288;10.966;2023-05-17T19:05:08;13.80;57.40
29501;DHT22;16450;50.288;10.966;2023-05-17T19:08:11;13.80;57.60
29501;DHT22;16450;50.288;10.966;2023-05-17T19:11:12;13.80;57.90
29501;DHT22;16450;50.288;10.966;2023-05-17T19:14:14;13.70;57.90
29501;DHT22;16450;50.288;10.966;2023-05-17T19:17:16;13.70;58.10
29501;DHT22;16450;50.288;10.966;2023-05-17T19:20:18;13.70;58.60
29501;DHT22;16450;50.288;10.966;2023-05-17T19:23:20;13.60;58.60
29501;DHT22;16450;50.288;10.966;2023-05-17T19:26:22;13.60;59.00